createdAt,value
2022-12-17T00:00:27.727Z,34.65
2022-12-17T00:03:18.531Z,31.80
2022-12-17T00:06:04.514Z,35.45
2022-12-17T00:08:49.870Z,38.73
2022-12-17T00:11:35.778Z,34.05
2022-12-17T00:14:21.473Z,36.80
2022-12-17T00:17:06.348Z,33.25
2022-12-17T00:19:51.830Z,33.70
2022-12-17T00:22:37.107Z,33.93
2022-12-17T00:25:22.303Z,37.58
2022-12-17T00:28:07.555Z,33.67
2022-12-17T00:30:52.736Z,32.50
2022-12-17T00:33:38.511Z,31.58
2022-12-17T00:36:30.364Z,34.50
2022-12-17T00:39:15.474Z,32.80
2022-12-17T00:42:00.563Z,35.35
2022-12-17T00:44:45.563Z,33.25
2022-12-17T00:47:30.721Z,31.98
2022-12-17T00:50:15.855Z,30.37
2022-12-17T00:53:02.103Z,32.97
2022-12-17T00:55:47.520Z,34.85
2022-12-17T00:58:32.602Z,33.63
2022-12-17T01:01:20.427Z,33.70
2022-12-17T01:04:06.078Z,30.60
2022-12-17T01:06:52.103Z,35.58
2022-12-17T01:09:38.621Z,35.00
2022-12-17T01:12:23.888Z,37.17
2022-12-17T01:15:08.766Z,34.70
2022-12-17T01:17:54.139Z,33.67
2022-12-17T01:20:41.350Z,32.40
2022-12-17T01:23:27.680Z,33.58
2022-12-17T01:26:14.535Z,28.77
2022-12-17T01:29:00.340Z,30.75
2022-12-17T01:31:46.072Z,36.70
2022-12-17T01:34:36.426Z,30.83
2022-12-17T01:37:21.445Z,31.20
2022-12-17T01:40:06.979Z,32.72
2022-12-17T01:42:59.857Z,33.00
2022-12-17T01:45:52.477Z,27.97
2022-12-17T01:48:37.678Z,30.00
2022-12-17T01:51:23.063Z,33.83
2022-12-17T01:54:13.926Z,33.65
2022-12-17T01:57:02.057Z,33.78
2022-12-17T02:00:03.440Z,32.73
2022-12-17T02:02:50.596Z,33.38
2022-12-17T02:05:40.939Z,33.80
2022-12-17T02:08:36.275Z,33.35
2022-12-17T02:11:36.744Z,34.33
2022-12-17T02:14:34.540Z,37.70
2022-12-17T02:17:25.379Z,35.80
2022-12-17T02:20:29.169Z,33.10
2022-12-17T02:23:29.089Z,35.45
2022-12-17T02:26:21.794Z,36.53
2022-12-17T02:29:10.384Z,30.80
2022-12-17T02:32:00.804Z,35.53
2022-12-17T02:34:47.111Z,30.27
2022-12-17T02:37:32.298Z,30.25
2022-12-17T02:40:18.000Z,28.55
2022-12-17T02:43:05.615Z,33.03
2022-12-17T02:45:51.991Z,30.95
2022-12-17T02:48:38.121Z,34.47
2022-12-17T02:51:24.462Z,32.85
2022-12-17T02:54:23.669Z,32.90
2022-12-17T02:57:11.787Z,32.90
2022-12-17T02:59:59.435Z,37.67
2022-12-17T03:02:46.986Z,37.22
2022-12-17T03:05:47.530Z,30.70
2022-12-17T03:08:33.158Z,39.13
2022-12-17T03:11:35.801Z,31.87
2022-12-17T03:14:21.013Z,30.92
2022-12-17T03:17:07.400Z,30.80
2022-12-17T03:19:53.177Z,34.15
2022-12-17T03:22:38.392Z,32.50
2022-12-17T03:25:23.769Z,32.10
2022-12-17T03:28:09.319Z,36.92
2022-12-17T03:30:56.597Z,30.50
2022-12-17T03:33:41.882Z,30.08
2022-12-17T03:36:28.276Z,38.95
2022-12-17T03:39:13.274Z,34.63
2022-12-17T03:41:58.444Z,34.85
2022-12-17T03:44:43.302Z,33.10
2022-12-17T03:47:28.511Z,36.30
2022-12-17T03:50:13.980Z,41.03
2022-12-17T03:52:58.824Z,38.23
2022-12-17T03:55:43.671Z,34.70
2022-12-17T03:58:28.830Z,37.63
2022-12-17T04:01:13.999Z,37.22
2022-12-17T04:03:58.898Z,31.55
2022-12-17T04:06:43.921Z,33.87
2022-12-17T04:09:29.248Z,34.63
2022-12-17T04:12:14.298Z,39.67
2022-12-17T04:14:59.435Z,33.90
2022-12-17T04:17:44.372Z,40.38
2022-12-17T04:20:29.518Z,32.43
2022-12-17T04:23:14.877Z,33.00
2022-12-17T04:26:00.166Z,32.78
2022-12-17T04:28:45.267Z,39.20
2022-12-17T04:31:30.540Z,35.35
2022-12-17T04:34:15.768Z,30.47
2022-12-17T04:37:00.880Z,31.67
2022-12-17T04:39:45.972Z,36.55
2022-12-17T04:42:30.982Z,33.17
2022-12-17T04:45:16.012Z,38.80
2022-12-17T04:48:02.258Z,38.47
2022-12-17T04:50:47.382Z,36.47
2022-12-17T04:53:32.705Z,34.80
2022-12-17T04:56:17.499Z,34.85
2022-12-17T04:59:02.568Z,33.58
2022-12-17T05:01:47.774Z,36.47
2022-12-17T05:04:33.195Z,36.45
2022-12-17T05:07:18.274Z,33.83
2022-12-17T05:10:03.358Z,32.17
2022-12-17T05:12:48.550Z,34.50
2022-12-17T05:15:33.657Z,33.10
2022-12-17T05:18:26.050Z,36.72
2022-12-17T05:21:11.655Z,35.03
2022-12-17T05:23:56.946Z,37.65
2022-12-17T05:26:44.525Z,35.63
2022-12-17T05:29:29.709Z,34.97
2022-12-17T05:32:15.087Z,41.30
2022-12-17T05:34:59.898Z,36.22
2022-12-17T05:37:45.209Z,32.92
2022-12-17T05:40:31.706Z,37.22
2022-12-17T05:43:21.166Z,34.87
2022-12-17T05:46:06.877Z,35.08
2022-12-17T05:48:52.751Z,37.40
2022-12-17T05:51:39.283Z,38.10
2022-12-17T05:54:25.506Z,31.58
2022-12-17T05:57:11.075Z,36.23
2022-12-17T05:59:56.180Z,39.08
2022-12-17T06:02:41.772Z,33.63
2022-12-17T06:05:27.758Z,36.95
2022-12-17T06:08:20.212Z,36.80
2022-12-17T06:11:05.820Z,35.50
2022-12-17T06:13:50.868Z,40.00
2022-12-17T06:16:35.958Z,34.90
2022-12-17T06:19:22.472Z,34.05
2022-12-17T06:22:07.624Z,38.13
2022-12-17T06:24:56.233Z,35.27
2022-12-17T06:34:15.368Z,36.15
2022-12-17T06:37:00.369Z,36.33
2022-12-17T06:39:45.841Z,36.97
2022-12-17T06:42:30.585Z,31.42
2022-12-17T06:45:17.448Z,39.13
2022-12-17T06:48:02.304Z,37.63
2022-12-17T06:50:47.698Z,43.40
2022-12-17T06:53:33.185Z,37.73
2022-12-17T06:56:18.685Z,35.20
2022-12-17T06:59:03.885Z,37.13
2022-12-17T07:01:49.287Z,38.90
2022-12-17T07:04:38.294Z,40.47
2022-12-17T07:07:23.393Z,44.17
2022-12-17T07:10:13.904Z,35.70
2022-12-17T07:12:59.849Z,35.03
2022-12-17T07:15:45.317Z,38.60
2022-12-17T07:18:32.130Z,35.45
2022-12-17T07:21:19.840Z,36.43
2022-12-17T07:24:05.029Z,36.55
2022-12-17T07:26:50.340Z,32.90
2022-12-17T07:29:35.782Z,32.28
2022-12-17T07:32:26.540Z,36.08
2022-12-17T07:35:11.602Z,31.87
2022-12-17T07:37:56.598Z,39.22
2022-12-17T07:40:43.002Z,32.10
2022-12-17T07:43:30.112Z,35.55
2022-12-17T07:46:18.639Z,35.45
2022-12-17T07:49:08.209Z,33.17
2022-12-17T07:51:53.541Z,38.53
2022-12-17T07:54:38.605Z,33.35
2022-12-17T07:57:23.706Z,34.20
2022-12-17T08:00:13.974Z,41.45
2022-12-17T08:02:59.201Z,36.07
2022-12-17T08:05:44.515Z,36.55
2022-12-17T08:08:31.145Z,35.30
2022-12-17T08:11:17.051Z,35.13
2022-12-17T08:14:02.132Z,40.08
2022-12-17T08:16:47.399Z,46.47
2022-12-17T08:19:33.755Z,44.53
2022-12-17T08:22:18.885Z,40.85
2022-12-17T08:25:04.023Z,41.08
2022-12-17T08:27:49.478Z,44.83
2022-12-17T08:30:35.927Z,40.03
2022-12-17T08:33:23.379Z,43.88
2022-12-17T08:36:14.204Z,43.30
2022-12-17T08:38:59.143Z,43.25
2022-12-17T08:41:51.051Z,44.30
2022-12-17T08:44:39.338Z,49.40
2022-12-17T08:47:24.431Z,44.40
2022-12-17T08:50:09.181Z,43.65
2022-12-17T08:52:54.398Z,44.17
2022-12-17T08:55:50.818Z,45.53
2022-12-17T08:58:35.711Z,47.57
2022-12-17T09:01:21.439Z,42.55
2022-12-17T09:04:06.541Z,95.45
2022-12-17T09:06:51.737Z,117.18
2022-12-17T09:09:36.693Z,185.05
2022-12-17T09:12:21.863Z,163.67
2022-12-17T09:15:07.012Z,68.63
2022-12-17T09:17:52.093Z,66.55
2022-12-17T09:20:37.159Z,52.80
2022-12-17T09:23:22.416Z,60.25
2022-12-17T09:26:12.291Z,55.53
2022-12-17T09:28:57.341Z,48.33
2022-12-17T09:31:42.814Z,41.95
2022-12-17T09:34:28.480Z,42.28
2022-12-17T09:37:13.594Z,48.72
2022-12-17T09:39:58.733Z,40.87
2022-12-17T09:43:15.249Z,46.95
2022-12-17T09:46:30.398Z,53.38
2022-12-17T09:49:22.457Z,38.75
2022-12-17T09:52:07.854Z,43.40
2022-12-17T09:55:04.576Z,43.37
2022-12-17T09:57:53.842Z,43.97
2022-12-17T10:00:43.030Z,40.67
2022-12-17T10:03:31.381Z,42.15
2022-12-17T10:09:57.410Z,41.13
2022-12-17T10:12:42.471Z,40.22
2022-12-17T10:15:33.117Z,38.97
2022-12-17T10:18:25.467Z,40.65
2022-12-17T10:21:17.003Z,40.75
2022-12-17T10:24:02.195Z,41.87
2022-12-17T10:26:50.859Z,38.03
2022-12-17T10:29:37.006Z,40.40
2022-12-17T10:32:36.566Z,36.45
2022-12-17T10:35:30.799Z,36.03
2022-12-17T10:38:18.359Z,39.10
2022-12-17T10:41:04.510Z,40.28
2022-12-17T10:43:53.220Z,35.72
2022-12-17T10:46:42.923Z,41.20
2022-12-17T10:49:31.996Z,38.72
2022-12-17T10:52:20.740Z,40.20
2022-12-17T10:55:25.276Z,34.55
2022-12-17T10:58:10.796Z,38.67
2022-12-17T11:00:58.591Z,36.25
2022-12-17T11:03:47.409Z,35.42
2022-12-17T11:06:42.446Z,35.00
2022-12-17T11:09:46.492Z,42.47
2022-12-17T11:13:14.438Z,36.72
2022-12-17T11:21:45.806Z,37.80
2022-12-17T11:24:38.039Z,56.22
2022-12-17T11:27:26.914Z,45.83
2022-12-17T11:30:13.695Z,49.10
2022-12-17T11:33:06.439Z,38.28
2022-12-17T11:36:00.884Z,37.93
2022-12-17T11:38:57.368Z,34.97
2022-12-17T11:42:04.443Z,41.58
2022-12-17T11:45:03.173Z,46.10
2022-12-17T11:47:59.461Z,40.13
2022-12-17T11:50:55.873Z,41.20
2022-12-17T11:54:13.912Z,44.83
2022-12-17T12:00:59.250Z,39.03
2022-12-17T12:11:02.559Z,43.00
2022-12-17T12:14:03.891Z,41.30
2022-12-17T12:17:11.968Z,38.83
2022-12-17T12:20:11.710Z,44.33
2022-12-17T12:23:16.471Z,37.10
2022-12-17T12:26:32.853Z,41.65
2022-12-17T12:38:22.574Z,41.30
2022-12-17T12:43:49.945Z,42.15
2022-12-17T13:00:08.285Z,43.60
2022-12-17T13:02:54.700Z,39.72
2022-12-17T13:05:40.419Z,47.10
2022-12-17T13:08:09.017Z,42.80
2022-12-17T13:10:38.756Z,45.97
2022-12-17T13:13:21.883Z,39.47
2022-12-17T13:15:53.957Z,39.85
2022-12-17T13:18:35.766Z,40.30
2022-12-17T13:26:24.343Z,41.88
2022-12-17T13:28:58.019Z,42.25
2022-12-17T13:35:27.006Z,44.60
2022-12-17T14:00:28.257Z,41.88
2022-12-17T14:03:09.032Z,45.93
2022-12-17T14:05:38.631Z,44.67
2022-12-17T14:11:19.883Z,39.25
2022-12-17T14:16:50.996Z,40.30
2022-12-17T14:30:13.778Z,42.97
2022-12-17T14:51:54.431Z,40.50
2022-12-17T15:00:26.914Z,39.97
2022-12-17T15:03:13.281Z,48.47
2022-12-17T15:11:26.327Z,42.17
2022-12-17T15:16:40.804Z,43.77
2022-12-17T15:19:07.754Z,47.88
2022-12-17T15:21:34.736Z,47.00
2022-12-17T15:24:03.860Z,49.50
2022-12-17T15:26:33.222Z,44.47
2022-12-17T15:29:02.275Z,46.83
2022-12-17T15:31:35.403Z,44.65
2022-12-17T15:34:02.633Z,44.90
2022-12-17T15:36:31.995Z,44.05
2022-12-17T15:38:59.714Z,50.28
2022-12-17T15:41:45.450Z,44.37
2022-12-17T15:44:12.148Z,41.03
2022-12-17T15:46:39.776Z,38.95
2022-12-17T15:49:06.503Z,43.05
2022-12-17T15:51:35.302Z,38.83
2022-12-17T15:54:01.972Z,46.23
2022-12-17T15:56:29.032Z,48.97
2022-12-17T15:58:58.025Z,44.85
2022-12-17T16:01:25.185Z,46.70
2022-12-17T16:03:52.061Z,42.50
2022-12-17T16:06:23.789Z,46.87
2022-12-17T16:08:56.762Z,46.33
2022-12-17T16:11:27.365Z,48.63
2022-12-17T16:13:59.391Z,44.10
2022-12-17T16:16:32.781Z,50.85
2022-12-17T16:19:05.604Z,50.30
2022-12-17T16:21:43.407Z,50.50
2022-12-17T16:29:57.310Z,42.90
2022-12-17T16:32:38.459Z,47.60
2022-12-17T16:35:06.441Z,42.17
2022-12-17T16:37:42.763Z,50.63
2022-12-17T16:40:13.283Z,44.85
2022-12-17T16:42:48.412Z,42.38
2022-12-17T16:45:19.646Z,40.00
2022-12-17T16:47:51.155Z,40.97
2022-12-17T16:51:02.803Z,40.38
2022-12-17T16:56:23.261Z,42.42
2022-12-17T17:02:04.712Z,44.38
2022-12-17T17:04:42.795Z,43.80
2022-12-17T17:10:10.677Z,43.88
2022-12-17T17:15:29.229Z,42.70
2022-12-17T17:18:03.466Z,47.33
2022-12-17T17:20:38.418Z,43.05
2022-12-17T17:23:27.048Z,41.45
2022-12-17T17:25:58.329Z,43.72
2022-12-17T17:28:28.949Z,45.92
2022-12-17T17:31:06.266Z,47.77
2022-12-17T17:33:36.794Z,44.22
2022-12-17T17:38:59.457Z,44.60
2022-12-17T17:41:38.994Z,43.97
2022-12-17T17:44:12.709Z,41.63
2022-12-17T17:46:41.429Z,41.13
2022-12-17T17:49:12.803Z,36.70
2022-12-17T17:54:31.003Z,39.40
2022-12-17T17:56:59.056Z,40.27
2022-12-17T17:59:33.683Z,39.35
2022-12-17T18:02:08.210Z,40.35
2022-12-17T18:04:39.739Z,44.47
2022-12-17T18:07:26.614Z,41.13
2022-12-17T18:09:56.489Z,50.10
2022-12-17T18:12:43.051Z,40.60
2022-12-17T18:15:15.174Z,41.67
2022-12-17T18:17:44.674Z,42.75
2022-12-17T18:20:13.744Z,41.40
2022-12-17T18:22:48.647Z,38.97
2022-12-17T18:25:18.455Z,41.85
2022-12-17T18:27:46.114Z,46.70
2022-12-17T18:30:15.078Z,44.85
2022-12-17T18:32:42.368Z,52.92
2022-12-17T18:35:10.827Z,44.70
2022-12-17T18:37:41.137Z,42.28
2022-12-17T18:40:10.252Z,41.28
2022-12-17T18:43:02.694Z,50.03
2022-12-17T18:45:29.660Z,48.58
2022-12-17T18:48:00.335Z,41.37
2022-12-17T18:50:35.539Z,44.45
2022-12-17T18:53:07.127Z,44.00
2022-12-17T18:55:36.791Z,46.28
2022-12-17T18:58:03.926Z,38.53
2022-12-17T19:00:31.358Z,41.90
2022-12-17T19:03:01.952Z,42.38
2022-12-17T19:05:31.113Z,47.47
2022-12-17T19:07:58.905Z,44.28
2022-12-17T19:10:26.480Z,43.35
2022-12-17T19:12:56.770Z,46.37
2022-12-17T19:15:23.510Z,39.88
2022-12-17T19:17:52.512Z,42.95
2022-12-17T19:20:21.059Z,46.15
2022-12-17T19:22:48.027Z,44.10
2022-12-17T19:25:16.877Z,42.83
2022-12-17T19:27:43.856Z,40.70
2022-12-17T19:30:11.700Z,39.58
2022-12-17T19:32:39.327Z,47.15
2022-12-17T19:35:13.179Z,39.78
2022-12-17T19:37:40.518Z,36.27
2022-12-17T19:40:08.344Z,40.42
2022-12-17T19:42:37.580Z,36.75
2022-12-17T19:45:05.161Z,43.22
2022-12-17T19:47:43.234Z,47.10
2022-12-17T19:50:11.898Z,48.43
2022-12-17T19:52:40.568Z,44.00
2022-12-17T19:55:08.501Z,42.10
2022-12-17T19:57:36.957Z,45.53
2022-12-17T20:00:07.721Z,42.03
2022-12-17T20:03:02.499Z,46.37
2022-12-17T20:05:52.363Z,46.92
2022-12-17T20:08:22.480Z,42.15
2022-12-17T20:10:49.343Z,42.88
2022-12-17T20:13:15.973Z,49.78
2022-12-17T20:15:42.589Z,49.47
2022-12-17T20:18:09.171Z,46.33
2022-12-17T20:20:35.825Z,46.30
2022-12-17T20:23:02.388Z,48.72
2022-12-17T20:25:29.009Z,50.33
2022-12-17T20:27:56.068Z,45.87
2022-12-17T20:30:25.382Z,42.50
2022-12-17T20:32:53.748Z,42.58
2022-12-17T20:35:21.591Z,38.10
2022-12-17T20:37:48.229Z,42.33
2022-12-17T20:40:14.929Z,43.57
2022-12-17T20:42:41.483Z,44.65
2022-12-17T20:45:08.603Z,41.75
2022-12-17T20:47:37.271Z,46.58
2022-12-17T20:50:05.346Z,48.67
2022-12-17T20:52:31.993Z,44.13
2022-12-17T20:54:58.589Z,50.50
2022-12-17T20:57:26.240Z,42.72
2022-12-17T20:59:52.937Z,39.28
2022-12-17T21:02:19.752Z,43.22
2022-12-17T21:04:50.242Z,42.60
2022-12-17T21:07:17.925Z,47.25
2022-12-17T21:09:44.587Z,44.90
2022-12-17T21:12:13.429Z,46.90
2022-12-17T21:14:41.514Z,39.78
2022-12-17T21:17:08.221Z,42.43
2022-12-17T21:19:34.882Z,40.78
2022-12-17T21:22:01.558Z,43.95
2022-12-17T21:24:28.305Z,43.92
2022-12-17T21:26:54.880Z,37.70
2022-12-17T21:29:21.493Z,39.13
2022-12-17T21:31:50.126Z,43.80
2022-12-17T21:34:21.806Z,42.30
2022-12-17T21:36:55.156Z,40.28
2022-12-17T21:39:26.745Z,45.33
2022-12-17T21:42:18.883Z,40.23
2022-12-17T21:44:49.985Z,43.92
2022-12-17T21:47:27.649Z,40.85
2022-12-17T21:53:18.990Z,42.95
2022-12-17T21:55:52.525Z,41.33
2022-12-17T21:58:24.102Z,39.65
2022-12-17T22:00:55.851Z,45.88
2022-12-17T22:03:32.152Z,45.10
2022-12-17T22:06:16.854Z,45.47
2022-12-17T22:08:49.069Z,40.73
2022-12-17T22:11:28.815Z,41.63
2022-12-17T22:14:08.448Z,39.67
2022-12-17T22:19:56.737Z,37.20
2022-12-17T22:22:27.656Z,32.23
2022-12-17T22:25:13.673Z,31.30
2022-12-17T22:27:42.702Z,30.50
2022-12-17T22:30:35.405Z,30.83
2022-12-17T22:33:32.322Z,34.35
2022-12-17T22:37:19.830Z,33.93
2022-12-17T22:42:02.453Z,31.27
2022-12-17T22:44:31.829Z,30.65
2022-12-17T22:45:02.075Z,33.65
2022-12-17T22:47:35.775Z,35.50
2022-12-17T22:50:07.326Z,35.73
2022-12-17T22:52:36.520Z,37.58
2022-12-17T22:55:23.870Z,37.35
2022-12-17T22:57:52.227Z,32.20
2022-12-17T23:00:41.689Z,34.03
2022-12-17T23:03:09.982Z,36.60
2022-12-17T23:05:40.835Z,33.67
2022-12-17T23:08:11.866Z,34.70
2022-12-17T23:14:10.642Z,41.20
2022-12-17T23:16:54.806Z,39.90
2022-12-17T23:19:26.108Z,36.72
2022-12-17T23:21:56.272Z,40.08
2022-12-17T23:24:39.987Z,42.00
2022-12-17T23:27:14.889Z,35.42
2022-12-17T23:29:44.346Z,34.63
2022-12-17T23:32:18.798Z,41.28
2022-12-17T23:34:50.961Z,36.92
2022-12-17T23:37:26.252Z,37.78
2022-12-17T23:39:55.187Z,36.72
2022-12-17T23:42:41.949Z,33.47
2022-12-17T23:45:11.757Z,38.90
2022-12-17T23:47:42.315Z,38.22
2022-12-17T23:50:11.870Z,35.58
2022-12-17T23:52:43.305Z,35.72
2022-12-17T23:55:11.785Z,38.27
2022-12-17T23:57:38.609Z,39.08
